createdAt,value
2023-01-17T00:02:31.093Z,35.77
2023-01-17T00:05:51.890Z,36.85
2023-01-17T00:09:12.835Z,35.42
2023-01-17T00:12:15.193Z,32.08
2023-01-17T00:15:19.832Z,34.47
2023-01-17T00:18:22.192Z,29.50
2023-01-17T00:21:42.913Z,35.97
2023-01-17T00:25:03.802Z,29.85
2023-01-17T00:28:06.182Z,34.22
2023-01-17T00:31:09.620Z,32.47
2023-01-17T00:34:11.874Z,38.00
2023-01-17T00:37:14.045Z,30.38
2023-01-17T00:40:16.411Z,33.17
2023-01-17T00:43:39.808Z,29.23
2023-01-17T00:47:00.811Z,28.10
2023-01-17T00:50:21.886Z,25.13
2023-01-17T00:53:42.597Z,34.53
2023-01-17T00:57:03.355Z,34.08
2023-01-17T01:00:24.537Z,32.58
2023-01-17T01:03:45.476Z,30.67
2023-01-17T01:07:06.291Z,26.77
2023-01-17T01:10:27.892Z,31.77
2023-01-17T01:13:49.901Z,33.65
2023-01-17T01:17:10.798Z,28.00
2023-01-17T01:20:31.736Z,31.30
2023-01-17T01:23:53.058Z,29.83
2023-01-17T01:27:13.845Z,29.17
2023-01-17T01:30:35.218Z,30.60
2023-01-17T01:33:37.607Z,33.13
2023-01-17T01:36:39.841Z,26.07
2023-01-17T01:39:42.219Z,33.10
2023-01-17T01:42:59.899Z,29.40
2023-01-17T01:46:02.349Z,28.35
2023-01-17T01:49:24.773Z,28.42
2023-01-17T01:52:29.577Z,28.97
2023-01-17T01:55:38.102Z,28.07
2023-01-17T01:58:42.406Z,29.42
2023-01-17T02:01:44.849Z,27.85
2023-01-17T02:04:47.593Z,27.27
2023-01-17T02:08:01.658Z,32.03
2023-01-17T02:11:04.276Z,26.93
2023-01-17T02:14:06.632Z,29.95
2023-01-17T02:17:13.905Z,31.67
2023-01-17T02:20:16.353Z,29.48
2023-01-17T02:23:56.490Z,25.17
2023-01-17T02:27:16.695Z,28.77
2023-01-17T02:30:36.565Z,30.55
2023-01-17T02:33:40.782Z,31.88
2023-01-17T02:36:57.834Z,32.22
2023-01-17T02:40:02.771Z,30.47
2023-01-17T02:43:09.096Z,25.83
2023-01-17T02:46:11.438Z,29.05
2023-01-17T02:49:15.306Z,27.33
2023-01-17T02:52:43.934Z,25.75
2023-01-17T02:55:52.872Z,27.13
2023-01-17T02:59:16.860Z,25.73
2023-01-17T03:02:22.547Z,25.42
2023-01-17T03:05:33.741Z,20.73
2023-01-17T03:08:36.085Z,25.23
2023-01-17T03:11:38.422Z,21.90
2023-01-17T03:14:40.731Z,23.90
2023-01-17T03:17:49.919Z,23.10
2023-01-17T03:20:52.247Z,24.40
2023-01-17T03:23:54.578Z,20.52
2023-01-17T03:26:56.848Z,19.13
2023-01-17T03:29:59.217Z,23.50
2023-01-17T03:33:01.522Z,19.83
2023-01-17T03:36:04.857Z,18.30
2023-01-17T03:39:07.142Z,21.13
2023-01-17T03:42:09.412Z,20.17
2023-01-17T03:45:11.837Z,18.03
2023-01-17T03:48:14.194Z,18.48
2023-01-17T03:51:16.734Z,22.67
2023-01-17T03:54:19.058Z,19.10
2023-01-17T03:57:21.437Z,18.67
2023-01-17T04:00:23.743Z,19.43
2023-01-17T04:03:26.155Z,19.27
2023-01-17T04:06:28.710Z,16.38
2023-01-17T04:09:34.149Z,16.95
2023-01-17T04:12:36.469Z,16.30
2023-01-17T04:15:38.766Z,16.87
2023-01-17T04:18:41.034Z,17.33
2023-01-17T04:21:43.293Z,20.13
2023-01-17T04:24:45.607Z,17.80
2023-01-17T04:27:47.932Z,16.23
2023-01-17T04:30:50.279Z,17.13
2023-01-17T04:33:52.562Z,16.50
2023-01-17T04:36:54.912Z,18.10
2023-01-17T04:39:57.136Z,16.90
2023-01-17T04:42:59.724Z,14.27
2023-01-17T04:46:02.119Z,12.50
2023-01-17T04:49:04.390Z,15.77
2023-01-17T04:52:06.672Z,14.35
2023-01-17T04:55:09.430Z,16.45
2023-01-17T04:58:11.810Z,10.93
2023-01-17T05:01:14.193Z,12.37
2023-01-17T05:04:16.698Z,10.30
2023-01-17T05:07:18.935Z,10.00
2023-01-17T05:10:21.237Z,9.25
2023-01-17T05:13:23.542Z,15.50
2023-01-17T05:16:25.846Z,8.97
2023-01-17T05:19:28.123Z,9.52
2023-01-17T05:22:30.386Z,12.07
2023-01-17T05:25:32.940Z,11.27
2023-01-17T05:28:35.419Z,9.53
2023-01-17T05:31:38.224Z,12.03
2023-01-17T05:34:40.548Z,10.90
2023-01-17T05:37:49.181Z,17.40
2023-01-17T05:40:51.490Z,13.95
2023-01-17T05:43:53.788Z,16.30
2023-01-17T05:46:56.388Z,12.13
2023-01-17T05:49:58.746Z,10.35
2023-01-17T05:53:09.653Z,10.63
2023-01-17T05:56:11.927Z,14.48
2023-01-17T05:59:14.476Z,12.73
2023-01-17T06:02:16.788Z,14.30
2023-01-17T06:05:19.092Z,14.25
2023-01-17T06:08:23.452Z,11.93
2023-01-17T06:11:25.916Z,12.82
2023-01-17T06:14:28.205Z,10.70
2023-01-17T06:17:30.458Z,16.13
2023-01-17T06:20:33.973Z,10.25
2023-01-17T06:23:36.225Z,13.00
2023-01-17T06:26:38.626Z,9.02
2023-01-17T06:29:40.877Z,10.70
2023-01-17T06:32:43.149Z,9.70
2023-01-17T06:35:50.749Z,10.00
2023-01-17T06:38:53.083Z,11.23
2023-01-17T06:41:55.702Z,7.70
2023-01-17T06:44:58.010Z,8.07
2023-01-17T06:48:01.600Z,8.30
2023-01-17T06:51:04.017Z,8.32
2023-01-17T06:54:06.455Z,6.78
2023-01-17T06:57:08.817Z,8.05
2023-01-17T07:00:12.011Z,3.97
2023-01-17T07:03:22.787Z,5.90
2023-01-17T07:06:28.807Z,2.83
2023-01-17T07:09:31.203Z,3.75
2023-01-17T07:12:33.626Z,6.10
2023-01-17T07:15:36.064Z,3.47
2023-01-17T07:18:38.396Z,4.60
2023-01-17T07:21:40.926Z,6.78
2023-01-17T07:24:43.206Z,3.78
2023-01-17T07:27:45.726Z,5.40
2023-01-17T07:30:48.282Z,4.43
2023-01-17T07:33:50.574Z,5.50
2023-01-17T07:36:54.523Z,5.15
2023-01-17T07:39:56.911Z,5.28
2023-01-17T07:43:02.563Z,4.38
2023-01-17T07:46:08.137Z,6.70
2023-01-17T07:49:10.553Z,7.03
2023-01-17T07:52:12.930Z,4.10
2023-01-17T07:55:15.257Z,4.68
2023-01-17T07:58:17.623Z,5.03
2023-01-17T08:01:20.038Z,8.47
2023-01-17T08:04:25.836Z,4.57
2023-01-17T08:07:29.283Z,6.95
2023-01-17T08:10:31.530Z,4.03
2023-01-17T08:13:33.816Z,4.85
2023-01-17T08:16:37.625Z,3.63
2023-01-17T08:19:40.114Z,3.60
2023-01-17T08:22:42.555Z,6.25
2023-01-17T08:25:44.854Z,3.25
2023-01-17T08:28:55.997Z,7.20
2023-01-17T08:31:58.338Z,4.40
2023-01-17T08:35:01.070Z,4.47
2023-01-17T08:38:06.203Z,4.70
2023-01-17T08:41:08.543Z,3.30
2023-01-17T08:44:11.308Z,2.47
2023-01-17T08:47:13.647Z,2.13
2023-01-17T08:50:20.956Z,2.13
2023-01-17T08:53:23.467Z,2.03
2023-01-17T08:56:27.139Z,1.75
2023-01-17T08:59:29.569Z,1.60
2023-01-17T09:02:31.885Z,1.10
2023-01-17T09:05:34.149Z,1.80
2023-01-17T09:08:36.713Z,2.92
2023-01-17T09:12:11.455Z,1.20
2023-01-17T09:15:17.962Z,0.63
2023-01-17T09:18:22.905Z,2.70
2023-01-17T09:21:26.180Z,1.40
2023-01-17T09:24:28.443Z,1.65
2023-01-17T09:27:30.703Z,0.63
2023-01-17T09:30:32.964Z,0.47
2023-01-17T09:33:35.505Z,1.17
2023-01-17T09:36:38.003Z,3.63
2023-01-17T09:39:41.310Z,0.88
2023-01-17T09:42:43.767Z,2.58
2023-01-17T09:45:46.302Z,0.65
2023-01-17T09:48:56.754Z,2.27
2023-01-17T09:51:59.213Z,4.60
2023-01-17T09:55:02.013Z,1.42
2023-01-17T09:59:06.092Z,1.95
2023-01-17T10:02:23.850Z,1.98
2023-01-17T10:05:32.365Z,0.73
2023-01-17T10:08:53.329Z,1.63
2023-01-17T10:12:19.382Z,1.15
2023-01-17T10:15:32.493Z,3.25
2023-01-17T10:18:53.622Z,1.15
2023-01-17T10:22:16.032Z,1.27
2023-01-17T10:25:49.614Z,1.23
2023-01-17T10:28:54.407Z,0.93
2023-01-17T10:32:01.071Z,1.55
2023-01-17T10:41:21.562Z,0.90
2023-01-17T10:44:39.927Z,1.40
2023-01-17T10:47:46.552Z,2.85
2023-01-17T10:50:53.329Z,2.47
2023-01-17T10:54:19.100Z,1.98
2023-01-17T10:57:23.600Z,3.20
2023-01-17T11:00:33.781Z,1.00
2023-01-17T11:03:36.206Z,16.08
2023-01-17T11:06:57.238Z,0.93
2023-01-17T11:10:00.358Z,1.70
2023-01-17T11:13:05.218Z,1.20
2023-01-17T11:16:18.031Z,1.00
2023-01-17T11:19:35.445Z,0.80
2023-01-17T11:22:37.893Z,1.30
2023-01-17T11:25:41.645Z,3.50
2023-01-17T11:28:44.064Z,1.17
2023-01-17T11:31:46.412Z,9.07
2023-01-17T11:36:08.572Z,0.95
2023-01-17T11:39:20.347Z,3.90
2023-01-17T11:42:42.077Z,3.58
2023-01-17T11:45:45.495Z,5.43
2023-01-17T11:48:56.049Z,1.30
2023-01-17T11:51:58.993Z,1.20
2023-01-17T11:55:01.465Z,2.90
2023-01-17T11:58:03.929Z,3.15
2023-01-17T12:01:18.042Z,3.67
2023-01-17T12:04:32.431Z,2.63
2023-01-17T12:07:53.897Z,1.83
2023-01-17T12:11:10.350Z,1.70
2023-01-17T12:14:28.218Z,0.75
2023-01-17T12:18:19.939Z,1.07
2023-01-17T12:21:34.433Z,2.60
2023-01-17T12:25:01.205Z,2.72
2023-01-17T12:28:31.400Z,1.50
2023-01-17T12:31:51.789Z,2.67
2023-01-17T12:35:20.470Z,1.30
2023-01-17T12:38:47.171Z,2.30
2023-01-17T12:42:01.503Z,1.27
2023-01-17T12:45:13.997Z,3.63
2023-01-17T12:48:18.017Z,1.17
2023-01-17T12:51:50.198Z,0.93
2023-01-17T12:55:00.387Z,1.67
2023-01-17T12:58:06.707Z,1.45
2023-01-17T13:01:18.569Z,2.17
2023-01-17T13:04:34.701Z,1.23
2023-01-17T13:07:55.747Z,2.00
2023-01-17T13:11:16.132Z,1.83
2023-01-17T13:14:18.599Z,6.00
2023-01-17T13:17:26.732Z,2.40
2023-01-17T13:20:56.726Z,3.67
2023-01-17T13:24:23.482Z,3.53
2023-01-17T13:27:50.775Z,3.20
2023-01-17T13:31:20.597Z,2.70
2023-01-17T13:34:29.278Z,3.63
2023-01-17T13:38:24.082Z,2.05
2023-01-17T13:41:35.234Z,1.03
2023-01-17T13:44:37.707Z,3.23
2023-01-17T13:47:41.533Z,3.55
2023-01-17T13:50:47.343Z,2.78
2023-01-17T13:53:49.708Z,4.15
2023-01-17T13:57:55.156Z,4.77
2023-01-17T14:00:57.506Z,2.57
2023-01-17T14:04:05.868Z,7.78
2023-01-17T14:07:19.055Z,4.63
2023-01-17T14:10:43.108Z,5.15
2023-01-17T14:13:49.749Z,9.20
2023-01-17T14:16:53.490Z,3.47
2023-01-17T14:20:01.202Z,3.47
2023-01-17T14:23:26.251Z,3.67
2023-01-17T14:26:31.827Z,4.88
2023-01-17T14:29:44.055Z,2.57
2023-01-17T14:33:02.401Z,1.60
2023-01-17T14:36:09.558Z,2.60
2023-01-17T14:39:22.474Z,7.97
2023-01-17T14:42:33.331Z,3.20
2023-01-17T14:45:36.094Z,3.60
2023-01-17T14:48:40.211Z,7.13
2023-01-17T14:51:42.460Z,4.00
2023-01-17T14:54:49.312Z,6.45
2023-01-17T14:57:56.402Z,4.10
2023-01-17T15:01:04.694Z,12.33
2023-01-17T15:04:07.395Z,7.53
2023-01-17T15:07:24.425Z,19.33
2023-01-17T15:10:32.074Z,5.95
2023-01-17T15:13:44.585Z,6.25
2023-01-17T15:16:47.551Z,5.43
2023-01-17T15:19:57.082Z,5.07
2023-01-17T15:22:59.563Z,4.90
2023-01-17T15:26:03.167Z,7.30
2023-01-17T15:29:15.898Z,5.35
2023-01-17T15:32:23.534Z,5.53
2023-01-17T15:35:29.809Z,4.47
2023-01-17T15:38:38.719Z,5.38
2023-01-17T15:41:42.379Z,5.20
2023-01-17T15:44:49.380Z,4.57
2023-01-17T15:47:52.452Z,4.50
2023-01-17T15:51:07.390Z,4.80
2023-01-17T15:54:28.819Z,4.38
2023-01-17T15:57:38.988Z,4.55
2023-01-17T16:00:42.117Z,5.47
2023-01-17T16:03:56.452Z,5.00
2023-01-17T16:07:21.932Z,6.67
2023-01-17T16:10:32.696Z,6.82
2023-01-17T16:13:39.294Z,4.85
2023-01-17T16:16:50.329Z,4.93
2023-01-17T16:19:52.644Z,5.20
2023-01-17T16:22:55.013Z,4.87
2023-01-17T16:25:57.317Z,4.38
2023-01-17T16:28:59.637Z,7.13
2023-01-17T16:32:08.784Z,3.95
2023-01-17T16:35:20.872Z,3.87
2023-01-17T16:38:23.337Z,5.37
2023-01-17T16:41:25.759Z,6.05
2023-01-17T16:44:28.952Z,4.85
2023-01-17T16:47:31.670Z,8.80
2023-01-17T16:50:36.439Z,30.93
2023-01-17T16:53:38.929Z,8.37
2023-01-17T16:56:41.241Z,3.72
2023-01-17T16:59:50.612Z,3.38
2023-01-17T17:02:54.115Z,5.28
2023-01-17T17:06:00.718Z,4.83
2023-01-17T17:09:03.067Z,4.63
2023-01-17T17:12:05.846Z,6.55
2023-01-17T17:15:09.338Z,4.95
2023-01-17T17:18:16.595Z,5.03
2023-01-17T17:21:18.832Z,5.60
2023-01-17T17:24:21.094Z,6.63
2023-01-17T17:27:26.550Z,4.75
2023-01-17T17:30:28.984Z,5.85
2023-01-17T17:33:31.323Z,6.15
2023-01-17T17:36:34.840Z,6.50
2023-01-17T17:39:37.245Z,22.00
2023-01-17T17:42:39.648Z,4.72
2023-01-17T17:45:41.915Z,4.82
2023-01-17T17:48:44.672Z,4.38
2023-01-17T17:51:47.539Z,4.17
2023-01-17T17:54:49.921Z,3.87
2023-01-17T17:57:52.508Z,5.47
2023-01-17T18:00:55.024Z,5.85
2023-01-17T18:04:01.951Z,6.22
2023-01-17T18:07:04.344Z,6.00
2023-01-17T18:10:07.476Z,5.57
2023-01-17T18:13:09.782Z,3.97
2023-01-17T18:16:14.694Z,6.25
2023-01-17T18:19:23.852Z,6.03
2023-01-17T18:22:26.217Z,5.50
2023-01-17T18:25:28.510Z,5.17
2023-01-17T18:28:30.758Z,19.90
2023-01-17T18:31:33.748Z,7.75
2023-01-17T18:34:39.334Z,8.82
2023-01-17T18:37:41.572Z,8.33
2023-01-17T18:40:43.861Z,4.77
2023-01-17T18:43:46.645Z,8.65
2023-01-17T18:46:50.452Z,5.82
2023-01-17T18:49:53.874Z,8.82
2023-01-17T18:52:56.521Z,4.90
2023-01-17T18:56:00.545Z,4.43
2023-01-17T18:59:06.208Z,7.53
2023-01-17T19:02:09.195Z,5.13
2023-01-17T19:05:13.044Z,5.30
2023-01-17T19:08:16.188Z,4.67
2023-01-17T19:11:19.982Z,5.63
2023-01-17T19:14:22.773Z,4.65
2023-01-17T19:17:25.033Z,4.15
2023-01-17T19:20:27.332Z,3.92
2023-01-17T19:23:29.644Z,4.07
2023-01-17T19:26:32.012Z,4.93
2023-01-17T19:29:34.264Z,4.60
2023-01-17T19:32:36.542Z,4.07
2023-01-17T19:35:38.888Z,4.72
2023-01-17T19:38:42.819Z,4.47
2023-01-17T19:41:47.761Z,5.20
2023-01-17T19:44:50.059Z,8.95
2023-01-17T19:47:52.360Z,4.20
2023-01-17T19:50:55.075Z,3.17
2023-01-17T19:54:01.382Z,3.23
2023-01-17T19:57:03.819Z,4.00
2023-01-17T20:00:17.966Z,2.72
2023-01-17T20:03:21.791Z,4.07
2023-01-17T20:06:29.631Z,5.60
2023-01-17T20:09:32.030Z,4.53
2023-01-17T20:12:34.335Z,3.87
2023-01-17T20:15:36.578Z,3.08
2023-01-17T20:18:38.880Z,1.20
2023-01-17T20:21:41.230Z,1.27
2023-01-17T20:24:43.511Z,1.60
2023-01-17T20:27:45.725Z,1.87
2023-01-17T20:30:47.946Z,2.22
2023-01-17T20:33:52.205Z,2.60
2023-01-17T20:36:57.517Z,3.05
2023-01-17T20:39:59.915Z,1.97
2023-01-17T20:43:02.195Z,1.87
2023-01-17T20:46:05.702Z,1.90
2023-01-17T20:49:14.746Z,2.22
2023-01-17T20:52:17.657Z,2.00
2023-01-17T20:55:20.050Z,1.93
2023-01-17T20:58:22.419Z,1.87
2023-01-17T21:01:24.835Z,6.82
2023-01-17T21:04:27.183Z,4.40
2023-01-17T21:07:29.412Z,3.50
2023-01-17T21:10:31.674Z,4.33
2023-01-17T21:13:34.227Z,3.63
2023-01-17T21:16:36.591Z,3.35
2023-01-17T21:19:38.934Z,5.30
2023-01-17T21:22:41.243Z,3.42
2023-01-17T21:25:55.411Z,2.10
2023-01-17T21:28:58.787Z,2.43
2023-01-17T21:32:01.126Z,3.25
2023-01-17T21:35:03.530Z,3.22
2023-01-17T21:38:05.820Z,4.60
2023-01-17T21:41:08.129Z,2.30
2023-01-17T21:44:21.635Z,1.00
2023-01-17T21:47:23.936Z,1.17
2023-01-17T21:50:33.392Z,1.50
2023-01-17T21:53:37.785Z,1.00
2023-01-17T21:56:58.704Z,1.63
2023-01-17T22:00:00.996Z,1.53
2023-01-17T22:03:03.688Z,1.58
2023-01-17T22:06:06.359Z,1.77
2023-01-17T22:09:08.725Z,2.08
2023-01-17T22:12:11.022Z,1.83
2023-01-17T22:15:13.937Z,2.03
2023-01-17T22:18:16.461Z,1.67
2023-01-17T22:21:19.960Z,2.58
2023-01-17T22:24:22.295Z,1.60
2023-01-17T22:27:24.587Z,1.80
2023-01-17T22:30:26.915Z,1.80
2023-01-17T22:33:29.237Z,1.88
2023-01-17T22:36:35.158Z,1.60
2023-01-17T22:39:38.416Z,2.75
2023-01-17T22:42:40.798Z,1.77
2023-01-17T22:45:43.130Z,1.53
2023-01-17T22:48:45.924Z,1.67
2023-01-17T22:51:48.295Z,1.83
2023-01-17T22:54:50.879Z,1.42
2023-01-17T22:57:53.207Z,2.87
2023-01-17T23:01:10.792Z,1.63
2023-01-17T23:04:14.701Z,4.28
2023-01-17T23:07:17.049Z,2.13
2023-01-17T23:10:39.429Z,2.97
2023-01-17T23:13:41.737Z,2.33
2023-01-17T23:17:11.300Z,4.53
2023-01-17T23:20:13.617Z,2.78
2023-01-17T23:23:15.899Z,2.72
2023-01-17T23:26:18.231Z,2.10
2023-01-17T23:29:20.467Z,2.67
2023-01-17T23:32:22.867Z,2.93
2023-01-17T23:35:28.513Z,3.03
2023-01-17T23:38:30.919Z,2.03
2023-01-17T23:41:51.700Z,2.08
2023-01-17T23:44:54.069Z,3.33
2023-01-17T23:47:56.307Z,2.63
2023-01-17T23:51:08.971Z,2.20
2023-01-17T23:54:11.318Z,3.33
2023-01-17T23:57:13.749Z,2.30
